createdAt,value
2024-04-24T00:01:16.671Z,5.18
2024-04-24T00:03:18.790Z,6.72
2024-04-24T00:05:20.645Z,6.95
2024-04-24T00:07:22.353Z,5.65
2024-04-24T00:09:24.069Z,7.00
2024-04-24T00:11:28.469Z,5.03
2024-04-24T00:13:30.288Z,6.75
2024-04-24T00:15:31.992Z,6.00
2024-04-24T00:17:33.831Z,5.00
2024-04-24T00:19:35.656Z,5.53
2024-04-24T00:21:37.351Z,6.28
2024-04-24T00:23:39.002Z,4.68
2024-04-24T00:25:40.703Z,4.97
2024-04-24T00:27:45.000Z,5.22
2024-04-24T00:29:46.709Z,8.18
2024-04-24T00:31:48.374Z,5.43
2024-04-24T00:33:50.199Z,6.47
2024-04-24T00:35:51.907Z,4.57
2024-04-24T00:37:53.596Z,6.55
2024-04-24T00:39:55.288Z,4.93
2024-04-24T00:41:56.968Z,6.25
2024-04-24T00:44:01.301Z,6.72
2024-04-24T00:46:03.877Z,6.53
2024-04-24T00:48:07.606Z,5.82
2024-04-24T00:50:10.663Z,6.72
2024-04-24T00:52:12.452Z,6.05
2024-04-24T00:54:14.994Z,7.20
2024-04-24T00:56:16.987Z,5.97
2024-04-24T00:58:19.526Z,8.55
2024-04-24T01:00:23.948Z,9.10
2024-04-24T01:02:26.276Z,8.55
2024-04-24T01:04:28.098Z,9.27
2024-04-24T01:06:29.896Z,6.93
2024-04-24T01:08:31.933Z,6.72
2024-04-24T01:10:33.588Z,4.97
2024-04-24T01:12:35.329Z,4.63
2024-04-24T01:14:37.101Z,5.90
2024-04-24T01:16:42.921Z,5.57
2024-04-24T01:18:49.927Z,5.50
2024-04-24T01:20:53.965Z,8.20
2024-04-24T01:23:05.669Z,6.20
2024-04-24T01:25:13.922Z,5.70
2024-04-24T01:27:18.274Z,5.38
2024-04-24T01:29:20.116Z,5.50
2024-04-24T01:31:21.861Z,6.43
2024-04-24T01:33:23.594Z,6.32
2024-04-24T01:35:25.329Z,6.10
2024-04-24T01:37:27.135Z,6.88
2024-04-24T01:39:28.815Z,6.40
2024-04-24T01:41:30.487Z,5.10
2024-04-24T01:43:34.785Z,7.85
2024-04-24T01:45:36.453Z,6.18
2024-04-24T01:47:38.260Z,5.38
2024-04-24T01:49:40.019Z,5.65
2024-04-24T01:51:41.669Z,5.97
2024-04-24T01:53:43.432Z,4.35
2024-04-24T01:55:45.295Z,5.57
2024-04-24T01:57:47.128Z,9.15
2024-04-24T01:59:51.528Z,5.85
2024-04-24T02:01:53.232Z,6.03
2024-04-24T02:03:54.929Z,5.43
2024-04-24T02:05:56.609Z,6.05
2024-04-24T02:07:58.351Z,6.82
2024-04-24T02:10:00.166Z,5.10
2024-04-24T02:12:10.007Z,5.82
2024-04-24T02:14:17.564Z,6.72
2024-04-24T02:16:21.918Z,6.38
2024-04-24T02:18:23.635Z,7.18
2024-04-24T02:20:25.496Z,4.97
2024-04-24T02:22:27.228Z,5.13
2024-04-24T02:24:28.888Z,5.60
2024-04-24T02:26:30.560Z,6.22
2024-04-24T02:28:32.276Z,5.72
2024-04-24T02:30:33.953Z,5.95
2024-04-24T02:32:38.332Z,4.85
2024-04-24T02:34:40.061Z,6.50
2024-04-24T02:36:41.755Z,7.03
2024-04-24T02:38:43.432Z,6.85
2024-04-24T02:40:45.221Z,4.90
2024-04-24T02:42:46.945Z,7.43
2024-04-24T02:44:48.620Z,6.18
2024-04-24T02:46:50.300Z,7.18
2024-04-24T02:48:54.854Z,6.43
2024-04-24T02:50:56.622Z,6.63
2024-04-24T02:52:58.443Z,7.05
2024-04-24T02:55:00.178Z,6.70
2024-04-24T02:57:01.941Z,5.68
2024-04-24T02:59:03.676Z,5.85
2024-04-24T03:01:12.267Z,10.05
2024-04-24T03:03:14.063Z,8.77
2024-04-24T03:05:18.571Z,7.03
2024-04-24T03:07:20.326Z,7.78
2024-04-24T03:09:21.972Z,7.32
2024-04-24T03:11:23.748Z,7.70
2024-04-24T03:13:25.495Z,6.32
2024-04-24T03:15:27.167Z,7.63
2024-04-24T03:17:28.978Z,5.15
2024-04-24T03:19:30.711Z,6.85
2024-04-24T03:21:35.037Z,5.65
2024-04-24T03:23:38.034Z,5.35
2024-04-24T03:25:39.812Z,5.55
2024-04-24T03:27:41.568Z,6.40
2024-04-24T03:29:43.231Z,5.40
2024-04-24T03:31:44.915Z,5.13
2024-04-24T03:33:46.730Z,5.63
2024-04-24T03:35:48.427Z,5.32
2024-04-24T03:37:52.766Z,5.32
2024-04-24T03:39:54.483Z,4.32
2024-04-24T03:41:56.180Z,4.50
2024-04-24T03:43:57.940Z,5.13
2024-04-24T03:45:59.613Z,6.30
2024-04-24T03:48:01.380Z,5.35
2024-04-24T03:50:03.151Z,6.07
2024-04-24T03:52:05.186Z,5.15
2024-04-24T03:54:09.505Z,5.45
2024-04-24T03:56:11.231Z,4.95
2024-04-24T03:58:12.931Z,5.80
2024-04-24T04:00:14.985Z,7.15
2024-04-24T04:02:16.778Z,5.03
2024-04-24T04:04:18.561Z,6.07
2024-04-24T04:06:20.301Z,5.88
2024-04-24T04:08:22.002Z,5.13
2024-04-24T04:10:26.411Z,5.53
2024-04-24T04:12:28.073Z,6.95
2024-04-24T04:14:29.890Z,5.95
2024-04-24T04:16:31.570Z,6.38
2024-04-24T04:18:33.324Z,10.38
2024-04-24T04:20:35.137Z,6.35
2024-04-24T04:22:39.094Z,5.78
2024-04-24T04:24:42.026Z,5.32
2024-04-24T04:26:46.326Z,8.75
2024-04-24T04:28:48.006Z,6.30
2024-04-24T04:30:50.082Z,5.50
2024-04-24T04:32:51.819Z,5.70
2024-04-24T04:34:53.930Z,8.90
2024-04-24T04:36:55.663Z,7.90
2024-04-24T04:38:57.510Z,7.07
2024-04-24T04:40:59.184Z,4.88
2024-04-24T04:43:03.746Z,5.72
2024-04-24T04:45:06.576Z,6.55
2024-04-24T04:47:08.381Z,4.85
2024-04-24T04:49:10.171Z,6.32
2024-04-24T04:51:11.831Z,7.07
2024-04-24T04:53:13.665Z,6.50
2024-04-24T04:55:15.374Z,5.88
2024-04-24T04:57:17.035Z,6.07
2024-04-24T04:59:21.465Z,5.15
2024-04-24T05:01:23.167Z,4.30
2024-04-24T05:03:24.882Z,6.80
2024-04-24T05:05:26.618Z,6.63
2024-04-24T05:07:28.547Z,5.38
2024-04-24T05:09:30.329Z,5.95
2024-04-24T05:11:32.079Z,5.38
2024-04-24T05:13:33.812Z,4.97
2024-04-24T05:15:38.648Z,6.28
2024-04-24T05:17:40.590Z,5.97
2024-04-24T05:19:42.455Z,5.38
2024-04-24T05:21:44.126Z,5.68
2024-04-24T05:23:45.779Z,5.53
2024-04-24T05:25:47.449Z,6.43
2024-04-24T05:27:49.159Z,7.47
2024-04-24T05:29:50.848Z,11.02
2024-04-24T05:31:55.199Z,6.32
2024-04-24T05:33:57.064Z,6.32
2024-04-24T05:35:58.837Z,5.43
2024-04-24T05:38:00.644Z,5.53
2024-04-24T05:40:02.438Z,5.50
2024-04-24T05:42:04.224Z,4.60
2024-04-24T05:44:05.929Z,5.30
2024-04-24T05:46:07.631Z,9.07
2024-04-24T05:48:12.036Z,5.63
2024-04-24T05:50:13.875Z,7.50
2024-04-24T05:52:15.601Z,5.65
2024-04-24T05:54:17.335Z,6.20
2024-04-24T05:56:19.052Z,5.32
2024-04-24T05:58:20.817Z,7.47
2024-04-24T06:00:22.495Z,7.10
2024-04-24T06:02:25.648Z,8.50
2024-04-24T06:04:30.101Z,6.97
2024-04-24T06:06:31.837Z,7.40
2024-04-24T06:08:33.491Z,7.07
2024-04-24T06:10:37.563Z,7.00
2024-04-24T06:12:39.201Z,7.60
2024-04-24T06:14:40.878Z,6.75
2024-04-24T06:16:44.307Z,8.77
2024-04-24T06:18:47.737Z,6.10
2024-04-24T06:20:52.246Z,7.88
2024-04-24T06:22:53.983Z,6.68
2024-04-24T06:24:55.713Z,6.93
2024-04-24T06:26:57.444Z,7.07
2024-04-24T06:28:59.134Z,8.30
2024-04-24T06:31:00.843Z,8.13
2024-04-24T06:33:05.840Z,8.43
2024-04-24T06:35:07.775Z,9.07
2024-04-24T06:37:12.207Z,9.02
2024-04-24T06:39:13.895Z,7.20
2024-04-24T06:41:15.985Z,7.82
2024-04-24T06:43:17.747Z,8.43
2024-04-24T06:45:21.110Z,8.50
2024-04-24T06:47:22.810Z,7.18
2024-04-24T06:49:24.591Z,8.20
2024-04-24T06:51:28.391Z,8.48
2024-04-24T06:53:36.769Z,7.97
2024-04-24T06:55:38.495Z,9.50
2024-04-24T06:57:47.149Z,8.80
2024-04-24T06:59:48.832Z,8.90
2024-04-24T07:01:50.949Z,7.43
2024-04-24T07:03:53.184Z,8.13
2024-04-24T07:05:55.073Z,7.47
2024-04-24T07:07:56.814Z,7.22
2024-04-24T07:10:01.217Z,8.50
2024-04-24T07:12:03.046Z,7.53
2024-04-24T07:14:04.890Z,7.65
2024-04-24T07:16:07.083Z,8.10
2024-04-24T07:18:08.822Z,8.27
2024-04-24T07:20:10.766Z,8.07
2024-04-24T07:22:12.423Z,7.97
2024-04-24T07:24:14.105Z,8.07
2024-04-24T07:26:19.147Z,8.13
2024-04-24T07:28:21.693Z,11.38
2024-04-24T07:30:23.358Z,7.47
2024-04-24T07:32:25.096Z,7.95
2024-04-24T07:34:26.824Z,9.73
2024-04-24T07:36:28.498Z,8.70
2024-04-24T07:38:30.185Z,9.40
2024-04-24T07:40:31.968Z,8.38
2024-04-24T07:42:36.616Z,7.15
2024-04-24T07:44:38.271Z,8.05
2024-04-24T07:46:39.953Z,9.82
2024-04-24T07:48:41.812Z,8.68
2024-04-24T07:50:43.599Z,8.52
2024-04-24T07:52:45.264Z,7.50
2024-04-24T07:54:46.983Z,9.50
2024-04-24T07:56:48.688Z,8.40
2024-04-24T07:58:53.099Z,7.50
2024-04-24T08:00:54.883Z,9.75
2024-04-24T08:02:56.645Z,7.28
2024-04-24T08:04:58.323Z,8.75
2024-04-24T08:07:00.042Z,8.57
2024-04-24T08:09:01.705Z,8.07
2024-04-24T08:11:04.484Z,7.30
2024-04-24T08:13:06.301Z,8.07
2024-04-24T08:15:10.698Z,7.63
2024-04-24T08:17:12.408Z,8.27
2024-04-24T08:19:14.106Z,8.57
2024-04-24T08:21:15.752Z,9.70
2024-04-24T08:23:21.667Z,9.23
2024-04-24T08:25:25.726Z,8.50
2024-04-24T08:27:28.452Z,10.50
2024-04-24T08:29:31.065Z,8.18
2024-04-24T08:31:36.463Z,9.85
2024-04-24T08:33:38.367Z,9.18
2024-04-24T08:35:40.189Z,9.27
2024-04-24T08:37:41.849Z,8.98
2024-04-24T08:39:43.486Z,8.63
2024-04-24T08:41:45.970Z,8.57
2024-04-24T08:43:49.761Z,9.80
2024-04-24T08:45:52.812Z,7.93
2024-04-24T08:47:58.493Z,7.97
2024-04-24T08:50:02.796Z,9.38
2024-04-24T08:52:06.466Z,10.65
2024-04-24T08:54:12.212Z,8.30
2024-04-24T08:56:17.082Z,10.65
2024-04-24T08:58:24.451Z,10.77
2024-04-24T09:00:30.952Z,8.80
2024-04-24T09:02:34.153Z,9.85
2024-04-24T09:04:40.546Z,8.73
2024-04-24T09:06:43.698Z,9.05
2024-04-24T09:08:47.105Z,13.55
2024-04-24T09:10:50.015Z,10.63
2024-04-24T09:12:53.287Z,9.30
2024-04-24T09:14:54.984Z,7.55
2024-04-24T09:16:57.705Z,10.05
2024-04-24T09:18:59.945Z,8.05
2024-04-24T09:21:05.047Z,8.48
2024-04-24T09:23:06.963Z,8.32
2024-04-24T09:25:08.703Z,9.23
2024-04-24T09:27:10.397Z,8.93
2024-04-24T09:29:12.281Z,9.80
2024-04-24T09:31:13.998Z,8.43
2024-04-24T09:33:16.062Z,9.32
2024-04-24T09:35:18.071Z,9.27
2024-04-24T09:37:23.421Z,8.55
2024-04-24T09:39:25.814Z,8.70
2024-04-24T09:41:27.623Z,9.57
2024-04-24T09:43:29.914Z,9.93
2024-04-24T09:45:32.524Z,9.70
2024-04-24T09:47:34.318Z,8.05
2024-04-24T09:49:38.049Z,9.73
2024-04-24T09:51:39.753Z,7.57
2024-04-24T09:53:44.110Z,9.65
2024-04-24T09:55:54.436Z,8.77
2024-04-24T09:58:00.449Z,8.20
2024-04-24T10:00:02.666Z,7.45
2024-04-24T10:02:05.813Z,7.22
2024-04-24T10:04:08.231Z,6.28
2024-04-24T10:06:13.259Z,7.03
2024-04-24T10:08:19.314Z,6.88
2024-04-24T10:10:33.896Z,7.35
2024-04-24T10:12:39.164Z,13.25
2024-04-24T10:14:52.016Z,7.25
2024-04-24T10:16:56.286Z,5.75
2024-04-24T10:19:00.640Z,4.72
2024-04-24T10:21:03.055Z,5.25
2024-04-24T10:23:06.025Z,8.00
2024-04-24T10:25:08.825Z,5.22
2024-04-24T10:27:14.306Z,5.53
2024-04-24T10:29:19.075Z,5.47
2024-04-24T10:31:22.337Z,5.93
2024-04-24T10:33:26.190Z,6.18
2024-04-24T10:35:28.246Z,5.55
2024-04-24T10:37:30.176Z,6.65
2024-04-24T10:39:41.294Z,5.90
2024-04-24T10:41:44.827Z,6.20
2024-04-24T10:43:49.788Z,6.60
2024-04-24T10:45:54.131Z,6.85
2024-04-24T10:47:57.424Z,6.28
2024-04-24T10:50:00.061Z,5.85
2024-04-24T10:52:01.844Z,6.32
2024-04-24T10:54:13.358Z,5.82
2024-04-24T10:56:16.742Z,6.85
2024-04-24T10:58:21.244Z,5.65
2024-04-24T11:00:30.835Z,6.00
2024-04-24T11:02:32.696Z,6.47
2024-04-24T11:04:34.466Z,7.32
2024-04-24T11:06:36.253Z,6.78
2024-04-24T11:08:38.002Z,5.28
2024-04-24T11:10:39.807Z,5.30
2024-04-24T11:12:42.223Z,7.20
2024-04-24T11:14:44.221Z,5.45
2024-04-24T11:16:57.991Z,6.65
2024-04-24T11:18:59.857Z,5.93
2024-04-24T11:21:01.608Z,6.13
2024-04-24T11:23:09.710Z,6.57
2024-04-24T11:25:12.718Z,6.75
2024-04-24T11:27:14.458Z,5.63
2024-04-24T11:29:16.141Z,5.40
2024-04-24T11:31:17.894Z,5.10
2024-04-24T11:33:23.565Z,6.85
2024-04-24T11:35:26.255Z,5.20
2024-04-24T11:37:28.211Z,6.07
2024-04-24T11:39:29.890Z,5.47
2024-04-24T11:41:36.076Z,5.70
2024-04-24T11:43:37.786Z,7.18
2024-04-24T11:45:39.502Z,6.30
2024-04-24T11:47:41.371Z,5.90
2024-04-24T11:49:50.367Z,5.07
2024-04-24T11:51:52.272Z,5.30
2024-04-24T11:53:55.020Z,5.20
2024-04-24T11:55:56.752Z,7.97
2024-04-24T11:57:59.539Z,5.20
2024-04-24T12:00:04.198Z,4.65
2024-04-24T12:02:05.974Z,4.57
2024-04-24T12:04:08.212Z,4.25
2024-04-24T12:06:13.043Z,4.95
2024-04-24T12:08:14.852Z,6.15
2024-04-24T12:10:23.200Z,5.03
2024-04-24T12:12:25.110Z,3.55
2024-04-24T12:14:29.955Z,5.25
2024-04-24T12:16:36.457Z,4.82
2024-04-24T12:18:38.178Z,5.70
2024-04-24T12:20:40.023Z,5.57
2024-04-24T12:22:44.428Z,9.93
2024-04-24T12:24:46.111Z,5.28
2024-04-24T12:26:47.828Z,6.65
2024-04-24T12:28:51.946Z,4.63
2024-04-24T12:32:55.241Z,5.15
2024-04-24T12:34:57.089Z,4.50
2024-04-24T12:36:58.820Z,5.70
2024-04-24T12:39:03.483Z,4.45
2024-04-24T12:41:06.195Z,5.50
2024-04-24T12:43:07.915Z,4.78
2024-04-24T12:45:09.887Z,4.57
2024-04-24T12:47:11.666Z,5.70
2024-04-24T12:49:13.354Z,5.13
2024-04-24T12:51:15.066Z,5.05
2024-04-24T12:53:16.776Z,7.45
2024-04-24T12:55:21.088Z,4.97
2024-04-24T12:57:22.755Z,6.13
2024-04-24T12:59:26.390Z,5.30
2024-04-24T13:01:28.192Z,5.43
2024-04-24T13:03:30.034Z,4.03
2024-04-24T13:05:34.182Z,4.30
2024-04-24T13:07:35.954Z,4.57
2024-04-24T13:09:37.621Z,5.40
2024-04-24T13:11:44.990Z,3.95
2024-04-24T13:13:46.716Z,4.22
2024-04-24T13:15:48.383Z,8.65
2024-04-24T13:17:52.995Z,5.22
2024-04-24T13:19:54.911Z,4.50
2024-04-24T13:21:56.603Z,5.63
2024-04-24T13:23:58.295Z,4.43
2024-04-24T13:26:00.190Z,3.47
2024-04-24T13:28:05.071Z,3.92
2024-04-24T13:30:07.506Z,3.47
2024-04-24T13:32:09.185Z,5.35
2024-04-24T13:34:10.909Z,5.30
2024-04-24T13:36:12.573Z,4.97
2024-04-24T13:38:14.355Z,4.63
2024-04-24T13:40:16.088Z,5.78
2024-04-24T13:42:17.739Z,3.70
2024-04-24T13:44:23.941Z,4.00
2024-04-24T13:46:25.666Z,3.95
2024-04-24T13:48:31.282Z,4.55
2024-04-24T13:50:34.603Z,3.97
2024-04-24T13:52:36.514Z,4.57
2024-04-24T13:54:38.192Z,2.92
2024-04-24T13:56:40.012Z,3.67
2024-04-24T13:58:41.884Z,3.33
2024-04-24T14:00:47.633Z,3.00
2024-04-24T14:02:49.419Z,3.22
2024-04-24T14:04:51.263Z,3.28
2024-04-24T14:06:52.959Z,3.72
2024-04-24T14:08:54.655Z,3.08
2024-04-24T14:10:56.468Z,3.40
2024-04-24T14:12:58.397Z,3.42
2024-04-24T14:15:00.090Z,6.03
2024-04-24T14:17:04.550Z,4.75
2024-04-24T14:19:06.290Z,3.33
2024-04-24T14:21:07.973Z,3.20
2024-04-24T14:23:09.843Z,4.78
2024-04-24T14:25:11.585Z,4.57
2024-04-24T14:27:13.314Z,3.70
2024-04-24T14:29:15.105Z,3.92
2024-04-24T14:31:16.867Z,3.53
2024-04-24T14:33:21.293Z,4.10
2024-04-24T14:35:23.136Z,2.95
2024-04-24T14:37:24.839Z,2.92
2024-04-24T14:39:26.703Z,3.42
2024-04-24T14:41:28.414Z,3.33
2024-04-24T14:43:30.152Z,2.67
2024-04-24T14:45:31.844Z,4.07
2024-04-24T14:47:33.652Z,3.65
2024-04-24T14:49:37.987Z,3.00
2024-04-24T14:51:39.981Z,2.33
2024-04-24T14:53:41.651Z,3.00
2024-04-24T14:55:43.313Z,3.83
2024-04-24T14:57:45.007Z,3.65
2024-04-24T14:59:46.650Z,3.25
2024-04-24T15:01:48.429Z,2.42
2024-04-24T15:03:50.172Z,3.13
2024-04-24T15:05:54.541Z,2.42
2024-04-24T15:07:56.201Z,4.00
2024-04-24T15:09:57.870Z,4.45
2024-04-24T15:11:59.674Z,2.58
2024-04-24T15:14:01.541Z,2.35
2024-04-24T15:16:03.347Z,2.90
2024-04-24T15:18:05.957Z,3.10
2024-04-24T15:20:08.426Z,4.90
2024-04-24T15:22:12.762Z,2.63
2024-04-24T15:24:14.493Z,2.50
2024-04-24T15:26:16.337Z,2.70
2024-04-24T15:28:18.047Z,4.13
2024-04-24T15:30:19.693Z,2.63
2024-04-24T15:32:21.426Z,2.42
2024-04-24T15:34:23.248Z,2.15
2024-04-24T15:36:25.034Z,2.70
2024-04-24T15:38:29.451Z,2.30
2024-04-24T15:40:31.126Z,2.40
2024-04-24T15:42:32.838Z,3.05
2024-04-24T15:44:34.562Z,2.45
2024-04-24T15:46:36.234Z,2.15
2024-04-24T15:48:38.394Z,3.22
2024-04-24T15:50:40.118Z,2.08
2024-04-24T15:52:41.797Z,2.83
2024-04-24T15:54:46.109Z,3.05
2024-04-24T15:56:47.826Z,3.80
2024-04-24T15:58:49.581Z,2.42
2024-04-24T16:00:51.281Z,2.42
2024-04-24T16:02:53.007Z,2.33
2024-04-24T16:04:54.743Z,5.25
2024-04-24T16:06:56.403Z,4.28
2024-04-24T16:08:58.064Z,4.07
2024-04-24T16:11:02.524Z,4.07
2024-04-24T16:13:04.745Z,2.45
2024-04-24T16:15:07.186Z,3.88
2024-04-24T16:17:09.227Z,3.58
2024-04-24T16:19:11.108Z,2.85
2024-04-24T16:21:13.008Z,2.70
2024-04-24T16:23:14.880Z,2.50
2024-04-24T16:25:16.620Z,2.70
2024-04-24T16:27:20.912Z,8.52
2024-04-24T16:29:22.687Z,2.83
2024-04-24T16:31:24.473Z,3.08
2024-04-24T16:33:26.227Z,3.25
2024-04-24T16:35:28.104Z,2.88
2024-04-24T16:37:30.043Z,2.53
2024-04-24T16:39:31.780Z,3.50
2024-04-24T16:41:33.528Z,3.28
2024-04-24T16:43:37.861Z,2.47
2024-04-24T16:45:39.561Z,3.33
2024-04-24T16:47:41.293Z,3.15
2024-04-24T16:49:42.992Z,4.18
2024-04-24T16:51:44.810Z,5.07
2024-04-24T16:53:46.626Z,3.17
2024-04-24T16:55:50.315Z,2.58
2024-04-24T16:57:52.128Z,2.75
2024-04-24T16:59:56.485Z,3.15
2024-04-24T17:01:58.184Z,2.53
2024-04-24T17:03:59.914Z,3.85
2024-04-24T17:06:01.594Z,2.60
2024-04-24T17:08:03.522Z,2.58
2024-04-24T17:10:06.295Z,3.63
2024-04-24T17:12:08.132Z,3.30
2024-04-24T17:14:10.157Z,3.10
2024-04-24T17:16:14.505Z,4.80
2024-04-24T17:18:16.332Z,2.95
2024-04-24T17:20:18.391Z,2.65
2024-04-24T17:22:20.319Z,2.45
2024-04-24T17:24:22.050Z,3.55
2024-04-24T17:26:30.276Z,4.10
2024-04-24T17:28:38.258Z,2.38
2024-04-24T17:30:40.003Z,2.83
2024-04-24T17:32:44.427Z,2.85
2024-04-24T17:34:46.161Z,3.67
2024-04-24T17:36:47.865Z,3.05
2024-04-24T17:38:49.600Z,3.05
2024-04-24T17:40:51.277Z,2.20
2024-04-24T17:42:53.028Z,2.90
2024-04-24T17:44:54.711Z,3.03
2024-04-24T17:46:56.527Z,2.58
2024-04-24T17:49:00.844Z,3.63
2024-04-24T17:51:02.502Z,2.13
2024-04-24T17:53:04.588Z,2.97
2024-04-24T17:55:06.580Z,2.90
2024-04-24T17:57:08.334Z,2.42
2024-04-24T17:59:10.034Z,2.85
2024-04-24T18:01:11.777Z,2.00
2024-04-24T18:03:13.619Z,3.97
2024-04-24T18:05:18.893Z,3.83
2024-04-24T18:07:21.385Z,4.60
2024-04-24T18:09:23.055Z,2.75
2024-04-24T18:11:24.997Z,3.30
2024-04-24T18:13:26.905Z,2.85
2024-04-24T18:15:28.557Z,2.88
2024-04-24T18:17:30.351Z,3.83
2024-04-24T18:19:32.248Z,4.53
2024-04-24T18:21:39.882Z,3.08
2024-04-24T18:23:42.857Z,3.47
2024-04-24T18:25:44.563Z,3.00
2024-04-24T18:27:46.255Z,2.95
2024-04-24T18:29:47.936Z,3.30
2024-04-24T18:31:49.598Z,2.42
2024-04-24T18:33:51.322Z,3.53
2024-04-24T18:35:53.225Z,3.25
2024-04-24T18:37:57.622Z,2.15
2024-04-24T18:39:59.424Z,3.33
2024-04-24T18:42:01.224Z,2.47
2024-04-24T18:44:03.009Z,3.00
2024-04-24T18:46:04.890Z,3.47
2024-04-24T18:48:10.886Z,2.45
2024-04-24T18:50:13.057Z,2.05
2024-04-24T18:52:14.760Z,2.75
2024-04-24T18:54:19.054Z,4.57
2024-04-24T18:56:20.767Z,3.13
2024-04-24T18:58:22.495Z,2.17
2024-04-24T19:00:24.380Z,2.20
2024-04-24T19:02:26.416Z,2.42
2024-04-24T19:04:28.284Z,2.20
2024-04-24T19:06:31.898Z,2.90
2024-04-24T19:08:35.036Z,2.55
2024-04-24T19:10:39.376Z,2.35
2024-04-24T19:12:41.098Z,2.90
2024-04-24T19:14:42.903Z,3.97
2024-04-24T19:16:44.633Z,2.80
2024-04-24T19:18:46.335Z,2.20
2024-04-24T19:20:48.098Z,2.25
2024-04-24T19:22:49.840Z,2.67
2024-04-24T19:24:51.504Z,3.47
2024-04-24T19:26:55.826Z,2.88
2024-04-24T19:28:57.547Z,2.35
2024-04-24T19:30:59.277Z,2.58
2024-04-24T19:33:01.135Z,2.35
2024-04-24T19:35:03.320Z,2.00
2024-04-24T19:37:05.446Z,2.38
2024-04-24T19:39:07.225Z,2.30
2024-04-24T19:41:12.669Z,3.78
2024-04-24T19:43:17.136Z,2.25
2024-04-24T19:45:18.859Z,2.47
2024-04-24T19:47:20.729Z,3.03
2024-04-24T19:49:22.464Z,2.58
2024-04-24T19:51:24.214Z,2.33
2024-04-24T19:53:26.097Z,2.50
2024-04-24T19:55:27.840Z,3.05
2024-04-24T19:57:29.483Z,2.60
2024-04-24T19:59:33.939Z,4.15
2024-04-24T20:01:35.737Z,2.45
2024-04-24T20:03:37.717Z,2.30
2024-04-24T20:05:39.512Z,2.88
2024-04-24T20:07:41.220Z,4.15
2024-04-24T20:09:43.051Z,4.80
2024-04-24T20:11:44.895Z,3.22
2024-04-24T20:13:46.651Z,3.17
2024-04-24T20:15:50.966Z,3.08
2024-04-24T20:17:52.775Z,2.47
2024-04-24T20:19:54.516Z,2.80
2024-04-24T20:21:56.180Z,5.35
2024-04-24T20:23:57.962Z,2.30
2024-04-24T20:25:59.623Z,2.42
2024-04-24T20:28:01.410Z,2.40
2024-04-24T20:30:03.337Z,4.85
2024-04-24T20:32:07.967Z,3.55
2024-04-24T20:34:09.750Z,2.72
2024-04-24T20:36:13.364Z,3.40
2024-04-24T20:38:15.040Z,3.38
2024-04-24T20:40:16.761Z,3.15
2024-04-24T20:42:18.466Z,3.13
2024-04-24T20:44:20.230Z,3.17
2024-04-24T20:46:21.896Z,3.67
2024-04-24T20:48:26.342Z,5.35
2024-04-24T20:50:28.214Z,2.75
2024-04-24T20:52:29.909Z,3.03
2024-04-24T20:54:31.579Z,3.20
2024-04-24T20:56:33.334Z,2.70
2024-04-24T20:58:35.075Z,3.63
2024-04-24T21:00:36.786Z,3.33
2024-04-24T21:02:38.551Z,2.47
2024-04-24T21:04:42.991Z,4.00
2024-04-24T21:06:44.710Z,3.03
2024-04-24T21:08:48.938Z,3.00
2024-04-24T21:10:51.524Z,3.00
2024-04-24T21:12:53.167Z,3.05
2024-04-24T21:14:54.871Z,3.22
2024-04-24T21:16:56.545Z,3.40
2024-04-24T21:18:58.481Z,3.10
2024-04-24T21:21:03.164Z,3.58
2024-04-24T21:23:05.891Z,3.50
2024-04-24T21:25:07.957Z,3.58
2024-04-24T21:27:12.126Z,3.22
2024-04-24T21:29:15.898Z,3.13
2024-04-24T21:31:17.626Z,3.40
2024-04-24T21:33:19.432Z,4.82
2024-04-24T21:35:21.175Z,4.10
2024-04-24T21:37:25.516Z,4.85
2024-04-24T21:39:27.171Z,3.72
2024-04-24T21:41:28.977Z,4.32
2024-04-24T21:43:30.662Z,4.43
2024-04-24T21:45:32.335Z,3.80
2024-04-24T21:47:34.168Z,3.58
2024-04-24T21:49:35.901Z,4.90
2024-04-24T21:51:37.749Z,4.63
2024-04-24T21:53:42.067Z,4.28
2024-04-24T21:55:43.855Z,3.78
2024-04-24T21:57:49.403Z,4.32
2024-04-24T21:59:51.134Z,4.38
2024-04-24T22:01:52.806Z,4.70
2024-04-24T22:03:54.586Z,4.25
2024-04-24T22:05:56.308Z,4.18
2024-04-24T22:07:57.993Z,4.38
2024-04-24T22:10:02.477Z,5.32
2024-04-24T22:12:04.711Z,3.88
2024-04-24T22:14:06.508Z,3.72
2024-04-24T22:16:08.263Z,4.47
2024-04-24T22:18:10.011Z,4.97
2024-04-24T22:20:11.770Z,5.40
2024-04-24T22:22:13.469Z,4.55
2024-04-24T22:24:15.166Z,3.92
2024-04-24T22:26:19.502Z,3.45
2024-04-24T22:28:21.364Z,3.38
2024-04-24T22:30:23.078Z,4.10
2024-04-24T22:32:26.000Z,3.00
2024-04-24T22:34:27.730Z,3.63
2024-04-24T22:36:29.453Z,4.45
2024-04-24T22:38:31.222Z,4.20
2024-04-24T22:40:32.949Z,6.13
2024-04-24T22:42:37.283Z,3.80
2024-04-24T22:44:38.937Z,4.50
2024-04-24T22:46:40.594Z,3.92
2024-04-24T22:48:42.950Z,5.45
2024-04-24T22:50:44.830Z,4.45
2024-04-24T22:52:47.211Z,4.93
2024-04-24T22:55:00.425Z,4.10
2024-04-24T22:57:02.209Z,4.95
2024-04-24T22:59:06.498Z,4.60
2024-04-24T23:01:08.210Z,3.97
2024-04-24T23:03:10.028Z,5.53
2024-04-24T23:05:11.959Z,3.17
2024-04-24T23:07:13.838Z,4.95
2024-04-24T23:09:15.790Z,3.72
2024-04-24T23:11:17.505Z,5.68
2024-04-24T23:13:20.412Z,3.90
2024-04-24T23:15:24.714Z,3.00
2024-04-24T23:17:26.440Z,3.75
2024-04-24T23:19:28.165Z,4.78
2024-04-24T23:21:29.844Z,3.85
2024-04-24T23:23:31.575Z,4.18
2024-04-24T23:25:33.249Z,4.90
2024-04-24T23:27:34.901Z,5.93
2024-04-24T23:29:36.765Z,4.32
2024-04-24T23:31:41.177Z,4.28
2024-04-24T23:33:42.908Z,5.38
2024-04-24T23:35:44.601Z,3.33
2024-04-24T23:37:46.329Z,4.53
2024-04-24T23:39:48.021Z,4.43
2024-04-24T23:41:49.716Z,3.92
2024-04-24T23:43:51.406Z,5.07
2024-04-24T23:45:53.143Z,3.67
2024-04-24T23:47:57.495Z,6.18
2024-04-24T23:49:59.310Z,3.50
2024-04-24T23:52:01.002Z,4.28
2024-04-24T23:54:02.778Z,6.05
2024-04-24T23:56:05.073Z,4.25
2024-04-24T23:58:06.785Z,3.88
